createdAt,value
2018-05-18T00:01:17.525Z,19.56
2018-05-18T00:03:45.985Z,19.46
2018-05-18T00:06:14.497Z,19.49
2018-05-18T00:08:42.995Z,19.60
2018-05-18T00:11:11.512Z,19.59
2018-05-18T00:13:40.084Z,19.65
2018-05-18T00:16:08.608Z,19.74
2018-05-18T00:18:37.088Z,19.65
2018-05-18T00:21:05.593Z,19.70
2018-05-18T00:23:34.118Z,19.67
2018-05-18T00:26:02.609Z,19.72
2018-05-18T00:28:31.130Z,19.60
2018-05-18T00:30:59.620Z,19.50
2018-05-18T00:33:28.133Z,19.54
2018-05-18T00:35:56.635Z,19.53
2018-05-18T00:38:25.144Z,19.51
2018-05-18T00:40:53.672Z,19.43
2018-05-18T00:43:22.175Z,19.46
2018-05-18T00:45:50.715Z,19.47
2018-05-18T00:48:19.277Z,19.42
2018-05-18T00:50:47.748Z,19.11
2018-05-18T00:53:16.257Z,18.96
2018-05-18T00:55:44.732Z,18.87
2018-05-18T00:58:13.240Z,19.00
2018-05-18T01:00:41.732Z,18.97
2018-05-18T01:03:10.287Z,18.88
2018-05-18T01:05:38.788Z,18.90
2018-05-18T01:08:07.274Z,18.69
2018-05-18T01:10:35.807Z,18.74
2018-05-18T01:13:04.374Z,18.69
2018-05-18T01:15:32.904Z,18.76
2018-05-18T01:18:01.412Z,18.68
2018-05-18T01:20:29.959Z,18.67
2018-05-18T01:22:58.492Z,18.48
2018-05-18T01:25:27.064Z,18.53
2018-05-18T01:27:55.560Z,18.60
2018-05-18T01:30:24.040Z,18.57
2018-05-18T01:32:52.609Z,18.44
2018-05-18T01:35:21.085Z,18.46
2018-05-18T01:37:49.592Z,18.43
2018-05-18T01:40:18.121Z,18.30
2018-05-18T01:42:46.661Z,18.20
2018-05-18T01:45:15.133Z,18.07
2018-05-18T01:47:43.652Z,18.08
2018-05-18T01:50:12.173Z,18.08
2018-05-18T01:52:40.640Z,18.03
2018-05-18T01:55:09.121Z,17.96
2018-05-18T01:57:37.629Z,17.84
2018-05-18T02:00:06.145Z,17.67
2018-05-18T02:02:34.700Z,17.72
2018-05-18T02:05:03.222Z,17.69
2018-05-18T02:07:31.742Z,17.78
2018-05-18T02:10:00.276Z,17.56
2018-05-18T02:12:28.756Z,17.65
2018-05-18T02:14:57.252Z,17.65
2018-05-18T02:17:25.760Z,17.72
2018-05-18T02:19:54.217Z,17.72
2018-05-18T02:22:22.725Z,17.72
2018-05-18T02:24:51.240Z,17.65
2018-05-18T02:27:19.717Z,17.66
2018-05-18T02:29:48.232Z,17.72
2018-05-18T02:32:16.714Z,17.64
2018-05-18T02:34:45.229Z,17.67
2018-05-18T02:37:13.722Z,17.71
2018-05-18T02:39:42.253Z,17.75
2018-05-18T02:42:10.793Z,17.59
2018-05-18T02:44:39.312Z,17.67
2018-05-18T02:47:07.860Z,17.65
2018-05-18T02:49:36.390Z,17.68
2018-05-18T02:52:04.933Z,17.64
2018-05-18T02:54:33.462Z,17.69
2018-05-18T02:57:01.976Z,17.68
2018-05-18T02:59:30.519Z,17.58
2018-05-18T03:01:59.006Z,17.56
2018-05-18T03:04:27.520Z,17.68
2018-05-18T03:06:55.977Z,17.59
2018-05-18T03:09:24.476Z,17.51
2018-05-18T03:11:53.025Z,17.50
2018-05-18T03:14:21.524Z,17.38
2018-05-18T03:16:50.017Z,17.33
2018-05-18T03:19:18.547Z,17.29
2018-05-18T03:21:47.086Z,17.23
2018-05-18T03:24:15.567Z,17.07
2018-05-18T03:26:44.094Z,17.09
2018-05-18T03:29:12.601Z,17.25
2018-05-18T03:31:41.105Z,17.21
2018-05-18T03:34:09.572Z,17.16
2018-05-18T03:36:38.076Z,17.26
2018-05-18T03:39:06.627Z,17.29
2018-05-18T03:41:35.149Z,17.43
2018-05-18T03:44:03.634Z,17.45
2018-05-18T03:46:32.156Z,17.70
2018-05-18T03:49:00.632Z,17.84
2018-05-18T03:51:29.144Z,18.04
2018-05-18T03:53:57.617Z,18.21
2018-05-18T03:56:26.133Z,18.45
2018-05-18T03:58:54.604Z,18.53
2018-05-18T04:01:34.829Z,18.70
2018-05-18T04:04:14.904Z,18.80
2018-05-18T04:06:55.012Z,19.09
2018-05-18T04:09:23.509Z,19.43
2018-05-18T04:11:51.989Z,19.58
2018-05-18T04:14:20.500Z,19.86
2018-05-18T04:16:49.049Z,20.06
2018-05-18T04:19:17.596Z,20.24
2018-05-18T04:21:46.090Z,20.48
2018-05-18T04:24:14.577Z,20.57
2018-05-18T04:26:43.088Z,20.60
2018-05-18T04:29:11.580Z,20.82
2018-05-18T04:31:40.112Z,20.78
2018-05-18T04:34:08.616Z,20.93
2018-05-18T04:36:37.102Z,21.05
2018-05-18T04:39:06.460Z,21.14
2018-05-18T04:41:34.960Z,21.26
2018-05-18T04:44:03.472Z,21.56
2018-05-18T04:46:31.980Z,21.58
2018-05-18T04:49:00.500Z,21.66
2018-05-18T04:51:29.001Z,21.69
2018-05-18T04:53:57.530Z,21.75
2018-05-18T04:56:26.011Z,21.84
2018-05-18T04:58:54.548Z,21.85
2018-05-18T05:01:23.041Z,21.97
2018-05-18T05:03:51.564Z,22.20
2018-05-18T05:06:20.040Z,22.31
2018-05-18T05:08:48.508Z,22.56
2018-05-18T05:11:17.035Z,22.65
2018-05-18T05:13:45.532Z,22.88
2018-05-18T05:16:14.056Z,22.94
2018-05-18T05:18:42.580Z,23.02
2018-05-18T05:21:11.070Z,23.17
2018-05-18T05:23:39.652Z,23.28
2018-05-18T05:26:08.093Z,22.89
2018-05-18T05:28:36.619Z,22.90
2018-05-18T05:31:05.379Z,22.80
2018-05-18T05:33:33.908Z,23.06
2018-05-18T05:36:02.410Z,23.11
2018-05-18T05:38:30.887Z,23.36
2018-05-18T05:40:59.501Z,23.34
2018-05-18T05:43:28.020Z,23.50
2018-05-18T05:45:56.533Z,23.42
2018-05-18T05:48:25.045Z,23.34
2018-05-18T05:50:53.526Z,23.78
2018-05-18T05:53:22.028Z,23.59
2018-05-18T05:55:50.540Z,23.94
2018-05-18T05:58:19.016Z,24.18
2018-05-18T06:00:47.542Z,24.27
2018-05-18T06:03:16.061Z,24.43
2018-05-18T06:05:44.541Z,24.32
2018-05-18T06:08:13.048Z,24.36
2018-05-18T06:10:41.528Z,24.71
2018-05-18T06:13:10.068Z,24.74
2018-05-18T06:15:38.553Z,24.87
2018-05-18T06:18:07.076Z,25.11
2018-05-18T06:20:35.598Z,24.86
2018-05-18T06:23:04.170Z,25.02
2018-05-18T06:25:32.680Z,25.39
2018-05-18T06:28:01.190Z,25.43
2018-05-18T06:30:29.705Z,25.33
2018-05-18T06:32:58.221Z,25.47
2018-05-18T06:35:26.694Z,25.45
2018-05-18T06:37:55.249Z,25.32
2018-05-18T06:40:23.757Z,25.58
2018-05-18T06:42:52.265Z,25.57
2018-05-18T06:45:20.805Z,25.56
2018-05-18T06:47:49.348Z,25.60
2018-05-18T06:50:17.844Z,25.95
2018-05-18T06:52:46.373Z,26.14
2018-05-18T06:55:14.899Z,26.46
2018-05-18T06:57:43.428Z,26.48
2018-05-18T07:00:11.971Z,26.31
2018-05-18T07:02:40.533Z,26.47
2018-05-18T07:05:09.039Z,26.29
2018-05-18T07:07:37.524Z,26.22
2018-05-18T07:10:06.089Z,26.37
2018-05-18T07:12:34.634Z,26.53
2018-05-18T07:15:03.343Z,26.32
2018-05-18T07:17:31.832Z,26.58
2018-05-18T07:20:00.376Z,26.39
2018-05-18T07:22:28.859Z,26.87
2018-05-18T07:24:57.364Z,27.14
2018-05-18T07:27:25.885Z,27.26
2018-05-18T07:29:54.402Z,27.27
2018-05-18T07:32:22.964Z,27.33
2018-05-18T07:34:51.499Z,27.41
2018-05-18T07:37:19.988Z,27.53
2018-05-18T07:39:48.504Z,27.56
2018-05-18T07:42:17.041Z,27.64
2018-05-18T07:44:45.546Z,27.86
2018-05-18T07:47:14.026Z,27.58
2018-05-18T07:49:42.682Z,27.44
2018-05-18T07:52:11.239Z,27.77
2018-05-18T07:54:39.768Z,27.92
2018-05-18T07:57:08.245Z,27.83
2018-05-18T07:59:36.772Z,28.05
2018-05-18T08:02:05.281Z,28.11
2018-05-18T08:04:33.833Z,27.85
2018-05-18T08:07:02.309Z,28.10
2018-05-18T08:09:30.820Z,28.21
2018-05-18T08:11:59.301Z,28.31
2018-05-18T08:14:27.837Z,28.32
2018-05-18T08:16:56.301Z,27.91
2018-05-18T08:19:24.842Z,27.95
2018-05-18T08:21:53.401Z,27.98
2018-05-18T08:24:21.879Z,27.93
2018-05-18T08:27:02.182Z,28.00
2018-05-18T08:29:36.421Z,27.88
2018-05-18T08:32:05.109Z,27.84
2018-05-18T08:34:33.616Z,28.03
2018-05-18T08:37:02.150Z,28.16
2018-05-18T08:39:30.629Z,28.14
2018-05-18T08:41:59.122Z,28.06
2018-05-18T08:44:27.749Z,28.20
2018-05-18T08:46:56.221Z,28.38
2018-05-18T08:49:24.724Z,28.54
2018-05-18T08:51:53.233Z,28.60
2018-05-18T08:54:21.787Z,28.52
2018-05-18T08:56:50.361Z,28.70
2018-05-18T08:59:18.871Z,28.85
2018-05-18T09:01:47.344Z,28.86
2018-05-18T09:04:15.925Z,28.95
2018-05-18T09:06:44.517Z,28.84
2018-05-18T09:09:13.024Z,28.63
2018-05-18T09:11:41.504Z,28.81
2018-05-18T09:14:10.013Z,28.83
2018-05-18T09:16:38.519Z,28.83
2018-05-18T09:19:07.047Z,28.74
2018-05-18T09:21:35.573Z,28.85
2018-05-18T09:24:04.089Z,28.99
2018-05-18T09:26:32.654Z,28.95
2018-05-18T09:29:01.164Z,29.11
2018-05-18T09:31:29.781Z,29.00
2018-05-18T09:33:58.295Z,28.66
2018-05-18T09:36:26.836Z,28.88
2018-05-18T09:38:55.325Z,29.05
2018-05-18T09:41:23.820Z,28.86
2018-05-18T09:43:52.331Z,28.72
2018-05-18T09:46:20.809Z,28.25
2018-05-18T09:48:49.796Z,28.46
2018-05-18T09:51:18.321Z,28.39
2018-05-18T09:53:46.838Z,28.60
2018-05-18T09:56:15.410Z,28.69
2018-05-18T09:58:43.921Z,28.67
2018-05-18T10:01:12.397Z,28.80
2018-05-18T10:03:40.929Z,29.00
2018-05-18T10:06:09.441Z,28.76
2018-05-18T10:08:37.960Z,29.01
2018-05-18T10:11:06.500Z,28.95
2018-05-18T10:13:34.961Z,29.23
2018-05-18T10:16:03.434Z,29.33
2018-05-18T10:18:32.026Z,29.28
2018-05-18T10:21:00.484Z,29.04
2018-05-18T10:23:29.008Z,29.07
2018-05-18T10:25:57.518Z,29.34
2018-05-18T10:28:27.248Z,29.42
2018-05-18T10:30:55.768Z,29.18
2018-05-18T10:33:24.280Z,29.25
2018-05-18T10:35:52.756Z,29.38
2018-05-18T10:38:21.319Z,29.45
2018-05-18T10:40:49.798Z,29.58
2018-05-18T10:43:18.357Z,29.56
2018-05-18T10:45:46.886Z,29.71
2018-05-18T10:48:15.401Z,29.61
2018-05-18T10:50:44.593Z,29.71
2018-05-18T10:53:13.188Z,29.59
2018-05-18T10:55:41.732Z,29.37
2018-05-18T10:58:10.237Z,29.54
2018-05-18T11:00:38.722Z,29.67
2018-05-18T11:03:07.255Z,29.67
2018-05-18T11:05:35.814Z,29.57
2018-05-18T11:08:04.425Z,29.54
2018-05-18T11:10:32.989Z,29.62
2018-05-18T11:13:01.473Z,29.81
2018-05-18T11:15:30.052Z,29.67
2018-05-18T11:17:58.572Z,29.54
2018-05-18T11:20:27.094Z,29.61
2018-05-18T11:22:55.617Z,29.47
2018-05-18T11:25:24.110Z,29.79
2018-05-18T11:27:52.645Z,29.62
2018-05-18T11:30:21.163Z,29.74
2018-05-18T11:32:49.693Z,29.73
2018-05-18T11:35:18.188Z,29.72
2018-05-18T11:37:46.680Z,29.63
2018-05-18T11:40:15.232Z,29.38
2018-05-18T11:42:43.811Z,29.35
2018-05-18T11:45:12.338Z,29.46
2018-05-18T11:47:40.837Z,29.63
2018-05-18T11:50:09.380Z,29.61
2018-05-18T11:52:37.894Z,29.63
2018-05-18T11:55:06.433Z,29.83
2018-05-18T11:57:34.904Z,29.82
2018-05-18T12:00:03.432Z,29.91
2018-05-18T12:02:31.973Z,29.97
2018-05-18T12:05:00.514Z,29.87
2018-05-18T12:07:28.997Z,29.77
2018-05-18T12:09:57.524Z,29.28
2018-05-18T12:12:26.066Z,29.54
2018-05-18T12:14:54.722Z,29.02
2018-05-18T12:17:23.243Z,29.85
2018-05-18T12:19:51.730Z,30.00
2018-05-18T12:22:20.241Z,30.16
2018-05-18T12:24:48.726Z,30.17
2018-05-18T12:27:17.255Z,30.25
2018-05-18T12:29:45.802Z,30.35
2018-05-18T12:32:14.276Z,30.49
2018-05-18T12:34:42.795Z,30.40
2018-05-18T12:37:11.273Z,30.39
2018-05-18T12:39:39.825Z,30.42
2018-05-18T12:42:08.312Z,30.44
2018-05-18T12:44:36.845Z,30.10
2018-05-18T12:47:05.363Z,30.13
2018-05-18T12:49:33.920Z,30.32
2018-05-18T12:52:02.426Z,30.47
2018-05-18T12:54:30.949Z,30.59
2018-05-18T12:56:59.488Z,30.63
2018-05-18T12:59:28.046Z,30.57
2018-05-18T13:01:56.537Z,30.45
2018-05-18T13:04:25.097Z,30.35
2018-05-18T13:06:53.616Z,30.33
2018-05-18T13:09:22.136Z,30.35
2018-05-18T13:11:50.613Z,30.38
2018-05-18T13:14:19.124Z,30.33
2018-05-18T13:19:15.161Z,30.50
2018-05-18T13:21:43.673Z,30.65
2018-05-18T13:24:12.184Z,30.62
2018-05-18T13:26:40.764Z,30.63
2018-05-18T13:29:09.262Z,30.86
2018-05-18T13:31:37.792Z,30.66
2018-05-18T13:34:06.338Z,30.69
2018-05-18T13:36:34.829Z,30.60
2018-05-18T13:39:03.429Z,30.47
2018-05-18T13:41:32.008Z,30.62
2018-05-18T13:44:00.519Z,30.68
2018-05-18T13:46:29.078Z,30.64
2018-05-18T13:48:57.557Z,30.50
2018-05-18T13:51:26.080Z,30.48
2018-05-18T13:53:54.563Z,30.48
2018-05-18T13:56:23.080Z,30.48
2018-05-18T13:58:51.566Z,30.31
2018-05-18T14:01:20.076Z,30.45
2018-05-18T14:03:48.585Z,30.44
2018-05-18T14:06:17.114Z,30.66
2018-05-18T14:08:45.628Z,30.75
2018-05-18T14:11:14.082Z,30.45
2018-05-18T14:13:42.586Z,30.60
2018-05-18T14:16:11.073Z,30.49
2018-05-18T14:18:39.583Z,30.73
2018-05-18T14:21:08.064Z,30.78
2018-05-18T14:23:36.572Z,30.57
2018-05-18T14:26:05.130Z,30.71
2018-05-18T14:28:33.608Z,30.44
2018-05-18T14:31:02.112Z,30.55
2018-05-18T14:33:30.649Z,30.44
2018-05-18T14:35:59.132Z,30.45
2018-05-18T14:38:27.649Z,30.22
2018-05-18T14:40:56.149Z,30.08
2018-05-18T14:43:24.657Z,29.96
2018-05-18T14:45:53.144Z,30.20
2018-05-18T14:48:21.657Z,30.16
2018-05-18T14:50:50.118Z,29.94
2018-05-18T14:53:18.641Z,30.11
2018-05-18T14:55:47.126Z,29.81
2018-05-18T14:58:15.696Z,30.12
2018-05-18T15:00:44.190Z,30.23
2018-05-18T15:03:12.668Z,30.25
2018-05-18T15:05:41.272Z,30.28
2018-05-18T15:08:09.696Z,30.38
2018-05-18T15:10:38.216Z,30.45
2018-05-18T15:13:06.689Z,30.37
2018-05-18T15:15:35.224Z,30.39
2018-05-18T15:18:03.753Z,30.49
2018-05-18T15:20:32.272Z,30.49
2018-05-18T15:23:00.754Z,30.40
2018-05-18T15:25:29.281Z,30.33
2018-05-18T15:27:57.753Z,30.20
2018-05-18T15:30:26.236Z,30.12
2018-05-18T15:32:54.742Z,29.87
2018-05-18T15:35:23.257Z,29.55
2018-05-18T15:37:51.775Z,29.48
2018-05-18T15:40:20.293Z,29.24
2018-05-18T15:42:48.972Z,29.04
2018-05-18T15:45:17.518Z,28.84
2018-05-18T15:47:45.998Z,28.59
2018-05-18T15:50:14.517Z,28.74
2018-05-18T15:52:42.987Z,28.78
2018-05-18T15:55:11.527Z,28.71
2018-05-18T15:57:40.046Z,28.79
2018-05-18T16:00:08.533Z,28.88
2018-05-18T16:02:37.060Z,28.43
2018-05-18T16:05:05.543Z,28.21
2018-05-18T16:07:34.064Z,28.32
2018-05-18T16:10:02.532Z,28.32
2018-05-18T16:12:31.066Z,28.08
2018-05-18T16:14:59.590Z,27.96
2018-05-18T16:17:28.062Z,27.82
2018-05-18T16:19:56.585Z,27.75
2018-05-18T16:22:25.053Z,27.58
2018-05-18T16:24:53.533Z,27.43
2018-05-18T16:27:22.048Z,27.54
2018-05-18T16:29:50.517Z,27.40
2018-05-18T16:32:19.029Z,27.38
2018-05-18T16:34:47.534Z,27.10
2018-05-18T16:37:16.000Z,27.18
2018-05-18T16:39:44.512Z,27.09
2018-05-18T16:42:13.000Z,27.08
2018-05-18T16:44:41.563Z,27.14
2018-05-18T16:47:10.196Z,27.18
2018-05-18T16:49:38.664Z,27.13
2018-05-18T16:52:07.114Z,27.13
2018-05-18T16:54:35.624Z,27.24
2018-05-18T16:57:04.110Z,27.22
2018-05-18T16:59:32.602Z,27.25
2018-05-18T17:02:01.064Z,26.91
2018-05-18T17:04:29.584Z,27.00
2018-05-18T17:06:58.063Z,27.01
2018-05-18T17:09:26.597Z,27.08
2018-05-18T17:11:55.057Z,27.09
2018-05-18T17:14:23.568Z,27.10
2018-05-18T17:16:52.014Z,27.09
2018-05-18T17:19:20.551Z,27.08
2018-05-18T17:21:49.033Z,27.06
2018-05-18T17:24:17.520Z,27.03
2018-05-18T17:26:45.960Z,27.00
2018-05-18T17:29:14.465Z,26.97
2018-05-18T17:31:42.988Z,26.96
2018-05-18T17:34:11.482Z,26.91
2018-05-18T17:36:39.990Z,26.90
2018-05-18T17:39:08.525Z,26.85
2018-05-18T17:41:36.992Z,26.77
2018-05-18T17:44:05.452Z,26.79
2018-05-18T17:46:33.939Z,26.68
2018-05-18T17:49:02.450Z,26.67
2018-05-18T17:51:30.953Z,26.53
2018-05-18T17:53:59.411Z,26.31
2018-05-18T17:56:27.912Z,26.39
2018-05-18T17:58:56.372Z,26.31
2018-05-18T18:01:24.930Z,26.20
2018-05-18T18:03:53.414Z,25.99
2018-05-18T18:06:22.120Z,25.54
2018-05-18T18:08:51.317Z,24.90
2018-05-18T18:11:19.787Z,24.03
2018-05-18T18:13:48.289Z,23.38
2018-05-18T18:16:16.773Z,22.77
2018-05-18T18:18:46.106Z,22.33
2018-05-18T18:21:14.612Z,22.08
2018-05-18T18:23:43.075Z,21.82
2018-05-18T18:26:11.525Z,21.88
2018-05-18T18:28:40.124Z,22.01
2018-05-18T18:31:08.534Z,22.12
2018-05-18T18:33:37.008Z,22.19
2018-05-18T18:36:05.481Z,22.18
2018-05-18T18:38:33.932Z,22.17
2018-05-18T18:41:02.431Z,21.90
2018-05-18T18:43:30.867Z,21.84
2018-05-18T18:45:59.370Z,21.93
2018-05-18T18:48:27.846Z,21.87
2018-05-18T18:50:56.336Z,21.57
2018-05-18T18:53:24.788Z,21.37
2018-05-18T18:55:53.261Z,21.47
2018-05-18T18:58:21.740Z,21.31
2018-05-18T19:00:50.235Z,21.36
2018-05-18T19:03:18.721Z,21.26
2018-05-18T19:05:47.150Z,21.38
2018-05-18T19:08:15.644Z,21.43
2018-05-18T19:10:44.097Z,21.54
2018-05-18T19:13:12.588Z,21.58
2018-05-18T19:15:41.058Z,21.55
2018-05-18T19:18:09.541Z,21.49
2018-05-18T19:20:38.001Z,21.45
2018-05-18T19:23:06.472Z,21.47
2018-05-18T19:25:34.933Z,21.43
2018-05-18T19:28:03.408Z,21.45
2018-05-18T19:30:31.941Z,21.46
2018-05-18T19:33:00.431Z,21.48
2018-05-18T19:35:28.974Z,21.47
2018-05-18T19:37:57.430Z,21.47
2018-05-18T19:40:25.932Z,21.38
2018-05-18T19:42:54.412Z,21.42
2018-05-18T19:45:22.896Z,21.42
2018-05-18T19:47:51.350Z,21.44
2018-05-18T19:50:19.832Z,21.39
2018-05-18T19:52:48.329Z,21.30
2018-05-18T19:55:16.781Z,21.41
2018-05-18T19:57:45.248Z,21.40
2018-05-18T20:00:13.725Z,21.40
2018-05-18T20:02:42.205Z,21.40
2018-05-18T20:05:10.661Z,21.34
2018-05-18T20:07:39.144Z,21.42
2018-05-18T20:10:07.597Z,21.46
2018-05-18T20:12:36.094Z,21.49
2018-05-18T20:15:04.572Z,21.51
2018-05-18T20:17:33.053Z,21.52
2018-05-18T20:20:01.534Z,21.54
2018-05-18T20:22:29.976Z,21.46
2018-05-18T20:24:58.533Z,21.57
2018-05-18T20:27:26.987Z,21.63
2018-05-18T20:29:55.472Z,21.32
2018-05-18T20:32:23.977Z,21.28
2018-05-18T20:34:52.474Z,21.22
2018-05-18T20:37:20.964Z,21.25
2018-05-18T20:39:49.404Z,21.18
2018-05-18T20:42:17.897Z,21.30
2018-05-18T20:44:46.433Z,21.36
2018-05-18T20:47:14.877Z,21.41
2018-05-18T20:49:43.348Z,21.35
2018-05-18T20:52:11.855Z,21.36
2018-05-18T20:54:40.300Z,21.23
2018-05-18T20:57:08.784Z,21.25
2018-05-18T20:59:37.258Z,21.18
2018-05-18T21:02:05.764Z,20.99
2018-05-18T21:04:34.208Z,20.96
2018-05-18T21:07:02.729Z,20.88
2018-05-18T21:09:31.246Z,20.86
2018-05-18T21:11:59.738Z,20.93
2018-05-18T21:14:28.193Z,20.98
2018-05-18T21:16:56.693Z,21.03
2018-05-18T21:19:25.161Z,21.07
2018-05-18T21:21:53.680Z,21.05
2018-05-18T21:24:22.151Z,21.14
2018-05-18T21:26:50.641Z,21.14
2018-05-18T21:29:19.120Z,21.13
2018-05-18T21:31:47.564Z,21.18
2018-05-18T21:34:16.082Z,21.23
2018-05-18T21:36:44.591Z,21.21
2018-05-18T21:39:13.032Z,21.14
2018-05-18T21:41:41.512Z,21.09
2018-05-18T21:44:09.973Z,21.04
2018-05-18T21:46:38.457Z,21.09
2018-05-18T21:49:06.989Z,21.15
2018-05-18T21:51:35.438Z,21.14
2018-05-18T21:54:03.946Z,21.08
2018-05-18T21:56:32.458Z,21.13
2018-05-18T21:59:00.901Z,21.04
2018-05-18T22:01:29.409Z,21.14
2018-05-18T22:03:57.880Z,21.10
2018-05-18T22:06:26.409Z,21.13
2018-05-18T22:08:54.830Z,21.09
2018-05-18T22:11:23.336Z,21.11
2018-05-18T22:13:51.784Z,21.13
2018-05-18T22:16:20.304Z,21.05
2018-05-18T22:18:48.852Z,20.92
2018-05-18T22:21:17.332Z,20.96
2018-05-18T22:23:45.832Z,21.01
2018-05-18T22:26:14.304Z,21.00
2018-05-18T22:28:42.788Z,21.02
2018-05-18T22:31:11.258Z,20.99
2018-05-18T22:33:39.761Z,21.01
2018-05-18T22:36:08.233Z,20.99
2018-05-18T22:38:36.769Z,20.96
2018-05-18T22:41:05.217Z,20.96
2018-05-18T22:43:33.732Z,20.89
2018-05-18T22:46:02.161Z,20.92
2018-05-18T22:48:30.652Z,20.92
2018-05-18T22:50:59.137Z,20.87
2018-05-18T22:53:27.648Z,20.76
2018-05-18T22:55:56.156Z,20.75
2018-05-18T22:58:24.607Z,20.81
2018-05-18T23:00:53.092Z,20.79
2018-05-18T23:03:21.573Z,20.79
2018-05-18T23:05:50.108Z,20.72
2018-05-18T23:08:18.576Z,20.78
2018-05-18T23:10:47.112Z,20.65
2018-05-18T23:13:15.681Z,20.50
2018-05-18T23:15:44.160Z,20.52
2018-05-18T23:18:12.684Z,20.38
2018-05-18T23:20:41.189Z,20.54
2018-05-18T23:23:09.670Z,20.43
2018-05-18T23:25:38.198Z,20.64
2018-05-18T23:28:06.693Z,20.52
2018-05-18T23:30:35.208Z,20.48
2018-05-18T23:33:03.688Z,20.58
2018-05-18T23:35:32.164Z,20.53
2018-05-18T23:38:00.683Z,20.48
2018-05-18T23:40:29.162Z,20.57
2018-05-18T23:42:57.707Z,20.53
2018-05-18T23:45:26.191Z,20.40
2018-05-18T23:47:54.759Z,20.53
2018-05-18T23:50:23.236Z,20.36
2018-05-18T23:52:51.748Z,20.29
2018-05-18T23:55:20.229Z,20.23
2018-05-18T23:57:48.705Z,20.29
